Aliq, Pennsylvania
Current Conditions -  °F | °C
As of 8:51 PM on Tuesday 21 Oct 2014 (Local Time) from KPIT Reporting Station
Overcast Overcast  
Wind Chill: 43°   Ceiling: 1000
Heat Index: 48°   Visibility: 10mi
Dew Point: 45°   Wind: 12mph
Humidity: 89%   Direction: 320°NW
Pressure: 30"   Gusts: NA
Location:  40.5921°N, 80.3191°W
Report Text: KPIT 220051Z 32010KT 10SM OVC010 09/07 A3000 RMK AO2 SLP169 T00890072
Loading
Personal Weather Stations






























Interactive Weather Map New forecast layout! Learn more

10-Day Weather Forecast

Advertisements
Track Severe Weather on mobile